createdAt,value
2022-09-05T00:02:32.446Z,96894.72
2022-09-05T00:05:21.296Z,96897.56
2022-09-05T00:08:00.367Z,96900.00
2022-09-05T00:11:39.622Z,96894.91
2022-09-05T00:13:31.943Z,96892.47
2022-09-05T00:16:08.860Z,96898.41
2022-09-05T00:24:18.692Z,96893.75
2022-09-05T00:24:25.376Z,96888.69
2022-09-05T00:25:20.907Z,96886.19
2022-09-05T00:27:47.687Z,96884.63
2022-09-05T00:31:08.826Z,96879.13
2022-09-05T00:33:19.919Z,96885.56
2022-09-05T00:36:07.975Z,96872.16
2022-09-05T00:38:37.392Z,96871.84
2022-09-05T00:41:09.766Z,96881.16
2022-09-05T00:43:41.992Z,96872.50
2022-09-05T00:46:15.765Z,96879.38
2022-09-05T00:48:52.128Z,96879.81
2022-09-05T00:51:34.632Z,96874.81
2022-09-05T00:54:28.326Z,96875.41
2022-09-05T00:57:30.656Z,96876.97
2022-09-05T01:00:17.051Z,96874.69
2022-09-05T01:03:09.777Z,96866.44
2022-09-05T01:05:50.000Z,96886.88
2022-09-05T01:08:39.151Z,96879.84
2022-09-05T01:11:12.537Z,96883.41
2022-09-05T01:13:46.866Z,96888.50
2022-09-05T01:16:24.528Z,96889.09
2022-09-05T01:19:06.587Z,96896.22
2022-09-05T01:22:06.626Z,96891.53
2022-09-05T01:24:51.155Z,96889.00
2022-09-05T01:29:12.879Z,96890.13
2022-09-05T01:30:40.388Z,96884.31
2022-09-05T01:33:19.839Z,96883.84
2022-09-05T01:36:05.732Z,96884.41
2022-09-05T01:38:48.324Z,96884.09
2022-09-05T01:41:39.353Z,96886.50
2022-09-05T01:44:29.040Z,96878.69
2022-09-05T01:47:06.873Z,96872.59
2022-09-05T01:49:52.553Z,96879.44
2022-09-05T01:52:49.423Z,96872.31
2022-09-05T01:56:01.959Z,96872.81
2022-09-05T01:58:43.595Z,96874.63
2022-09-05T02:01:30.191Z,96878.22
2022-09-05T02:04:21.524Z,96871.72
2022-09-05T02:06:55.803Z,96871.09
2022-09-05T02:10:07.020Z,96871.56
2022-09-05T02:12:41.306Z,96871.19
2022-09-05T02:15:17.760Z,96871.09
2022-09-05T02:17:53.152Z,96863.88
2022-09-05T02:20:25.440Z,96863.28
2022-09-05T02:23:04.443Z,96860.94
2022-09-05T02:26:01.547Z,96861.38
2022-09-05T02:28:38.238Z,96859.69
2022-09-05T02:31:19.730Z,96864.59
2022-09-05T02:34:01.765Z,96868.91
2022-09-05T02:36:36.517Z,96863.03
2022-09-05T02:45:02.775Z,96857.06
2022-09-05T02:45:13.550Z,96860.63
2022-09-05T02:45:31.337Z,96850.34
2022-09-05T02:48:15.807Z,96853.81
2022-09-05T02:57:28.063Z,96855.22
2022-09-05T02:57:38.161Z,96844.06
2022-09-05T02:57:38.340Z,96851.97
2022-09-05T03:00:08.798Z,96845.44
2022-09-05T03:02:50.781Z,96848.84
2022-09-05T03:05:24.905Z,96847.91
2022-09-05T03:08:23.757Z,96850.34
2022-09-05T03:11:33.379Z,96849.28
2022-09-05T03:14:40.072Z,96848.88
2022-09-05T03:17:43.800Z,96851.72
2022-09-05T03:20:42.493Z,96858.66
2022-09-05T03:23:38.976Z,96855.03
2022-09-05T03:26:44.069Z,96859.81
2022-09-05T03:29:36.001Z,96858.56
2022-09-05T03:32:53.283Z,96858.97
2022-09-05T03:35:56.275Z,96867.31
2022-09-05T03:39:03.863Z,96857.09
2022-09-05T03:41:50.355Z,96857.25
2022-09-05T03:44:34.922Z,96853.19
2022-09-05T03:47:17.608Z,96855.94
2022-09-05T03:54:02.899Z,96851.03
2022-09-05T03:57:21.024Z,96861.84
2022-09-05T03:57:24.554Z,96864.84
2022-09-05T04:00:05.119Z,96865.69
2022-09-05T04:07:48.151Z,96862.41
2022-09-05T04:08:18.710Z,96869.00
2022-09-05T04:08:30.974Z,96867.53
2022-09-05T04:11:08.602Z,96871.22
2022-09-05T04:13:41.118Z,96871.75
2022-09-05T04:16:15.055Z,96871.06
2022-09-05T04:18:47.566Z,96875.69
2022-09-05T04:21:20.310Z,96871.09
2022-09-05T04:24:00.047Z,96877.69
2022-09-05T04:27:00.224Z,96885.38
2022-09-05T04:29:41.008Z,96881.47
2022-09-05T04:32:19.705Z,96881.53
2022-09-05T04:35:08.389Z,96888.69
2022-09-05T04:37:48.465Z,96890.47
2022-09-05T04:40:42.041Z,96892.44
2022-09-05T04:43:15.734Z,96890.00
2022-09-05T04:45:51.125Z,96893.31
2022-09-05T04:48:24.395Z,96898.38
2022-09-05T04:51:08.404Z,96903.44
2022-09-05T04:54:14.914Z,96909.16
2022-09-05T04:56:47.653Z,96913.97
2022-09-05T05:01:42.070Z,96911.50
2022-09-05T05:06:15.484Z,96920.25
2022-09-05T05:06:15.945Z,96920.25
2022-09-05T05:08:03.515Z,96931.25
2022-09-05T05:11:50.029Z,96932.50
2022-09-05T05:17:55.336Z,96939.63
2022-09-05T05:18:13.757Z,96931.75
2022-09-05T05:19:21.981Z,96939.53
2022-09-05T05:21:54.094Z,96939.94
2022-09-05T05:24:26.765Z,96951.72
2022-09-05T05:27:04.135Z,96956.00
2022-09-05T05:29:44.004Z,96952.91
2022-09-05T05:32:19.532Z,96952.34
2022-09-05T05:35:10.950Z,96948.88
2022-09-05T05:37:43.936Z,96952.72
2022-09-05T05:40:19.959Z,96957.53
2022-09-05T05:42:48.149Z,96958.78
2022-09-05T05:45:18.648Z,96963.94
2022-09-05T05:47:50.585Z,96969.47
2022-09-05T05:50:35.054Z,96970.56
2022-09-05T05:53:29.161Z,96961.97
2022-09-05T05:56:29.881Z,96973.75
2022-09-05T05:59:09.305Z,96982.44
2022-09-05T06:02:26.674Z,96975.09
2022-09-05T06:05:28.530Z,96983.94
2022-09-05T06:10:24.253Z,96989.44
2022-09-05T06:14:50.528Z,96992.75
2022-09-05T06:14:59.830Z,96993.94
2022-09-05T06:17:37.423Z,96994.66
2022-09-05T06:22:10.592Z,96985.81
2022-09-05T06:24:12.282Z,96987.66
2022-09-05T06:26:58.937Z,96991.69
2022-09-05T06:29:38.601Z,96987.28
2022-09-05T06:32:21.988Z,96991.78
2022-09-05T06:35:17.791Z,96987.31
2022-09-05T06:37:54.623Z,96986.03
2022-09-05T06:40:32.209Z,96985.47
2022-09-05T06:43:09.203Z,96979.22
2022-09-05T06:46:03.687Z,96988.63
2022-09-05T06:48:46.422Z,96980.03
2022-09-05T06:51:47.488Z,96977.75
2022-09-05T06:54:39.987Z,96986.25
2022-09-05T06:57:49.550Z,96989.38
2022-09-05T07:00:23.631Z,97001.72
2022-09-05T07:03:15.577Z,96996.69
2022-09-05T07:05:55.868Z,96992.22
2022-09-05T07:08:37.393Z,96998.34
2022-09-05T07:11:16.758Z,96993.59
2022-09-05T07:13:57.582Z,96988.38
2022-09-05T07:16:38.914Z,96987.03
2022-09-05T07:19:18.623Z,96989.50
2022-09-05T07:22:04.357Z,96996.88
2022-09-05T07:24:54.365Z,96999.53
2022-09-05T07:27:58.752Z,96994.72
2022-09-05T07:30:24.855Z,96994.06
2022-09-05T07:32:55.237Z,97004.19
2022-09-05T07:35:29.266Z,97003.69
2022-09-05T07:38:06.925Z,97014.50
2022-09-05T07:40:39.468Z,97009.78
2022-09-05T07:43:11.111Z,97008.47
2022-09-05T07:45:46.418Z,97012.13
2022-09-05T07:48:34.175Z,97013.28
2022-09-05T07:56:46.499Z,97011.81
2022-09-05T07:57:01.707Z,97011.84
2022-09-05T07:57:20.827Z,97011.44
2022-09-05T07:59:41.314Z,97010.56
2022-09-05T08:02:11.328Z,97015.84
2022-09-05T08:04:41.849Z,97024.19
2022-09-05T08:07:47.734Z,97024.38
2022-09-05T08:10:09.170Z,97023.81
2022-09-05T08:13:00.612Z,97020.25
2022-09-05T08:15:39.630Z,97031.78
2022-09-05T08:18:25.785Z,97032.31
2022-09-05T08:20:58.540Z,97031.84
2022-09-05T08:23:51.371Z,97037.56
2022-09-05T08:26:30.569Z,97029.41
2022-09-05T08:29:05.498Z,97038.50
2022-09-05T08:31:41.959Z,97039.00
2022-09-05T08:34:16.033Z,97041.88
2022-09-05T08:36:47.254Z,97035.09
2022-09-05T08:39:20.040Z,97031.09
2022-09-05T08:42:23.855Z,97034.72
2022-09-05T08:46:39.246Z,97038.53
2022-09-05T08:48:09.892Z,97036.25
2022-09-05T08:50:54.848Z,97027.41
2022-09-05T08:53:46.554Z,97032.59
2022-09-05T08:56:20.636Z,97031.38
2022-09-05T08:59:32.096Z,97024.59
2022-09-05T09:02:45.503Z,97031.22
2022-09-05T09:05:14.539Z,97028.88
2022-09-05T09:07:50.826Z,97030.63
2022-09-05T09:10:40.598Z,97024.34
2022-09-05T09:13:35.965Z,97024.03
2022-09-05T09:16:10.997Z,97025.75
2022-09-05T09:19:02.133Z,97021.44
2022-09-05T09:21:40.688Z,97021.31
2022-09-05T09:24:23.231Z,97018.16
2022-09-05T09:26:57.195Z,97015.56
2022-09-05T09:29:26.552Z,97011.66
2022-09-05T09:32:03.995Z,97010.44
2022-09-05T09:34:49.296Z,97010.09
2022-09-05T09:37:53.416Z,97017.31
2022-09-05T09:40:33.150Z,97015.97
2022-09-05T09:43:07.337Z,97009.31
2022-09-05T09:46:04.351Z,96999.94
2022-09-05T09:49:21.646Z,96999.72
2022-09-05T09:52:20.781Z,97004.63
2022-09-05T09:55:34.079Z,97008.69
2022-09-05T09:58:29.515Z,97009.91
2022-09-05T10:01:09.838Z,97002.94
2022-09-05T10:09:25.162Z,96993.66
2022-09-05T10:10:55.367Z,96997.31
2022-09-05T10:11:23.797Z,96994.50
2022-09-05T10:13:34.733Z,96994.88
2022-09-05T10:16:33.121Z,96992.22
2022-09-05T10:22:41.881Z,96997.84
2022-09-05T10:25:29.326Z,96989.69
2022-09-05T10:28:05.964Z,96977.97
2022-09-05T10:32:56.048Z,96982.91
2022-09-05T10:35:17.243Z,96978.63
2022-09-05T10:36:29.159Z,96980.88
2022-09-05T10:39:18.886Z,96973.78
2022-09-05T10:41:53.439Z,96967.13
2022-09-05T10:44:29.184Z,96965.31
2022-09-05T10:47:09.207Z,96978.28
2022-09-05T10:49:43.413Z,96968.97
2022-09-05T10:52:18.823Z,96965.34
2022-09-05T10:55:14.536Z,96949.09
2022-09-05T10:57:57.796Z,96946.69
2022-09-05T11:02:23.325Z,96951.81
2022-09-05T11:03:46.803Z,96938.50
2022-09-05T11:06:24.880Z,96936.56
2022-09-05T11:09:01.529Z,96911.31
2022-09-05T11:11:34.675Z,96931.44
2022-09-05T11:14:07.340Z,96918.88
2022-09-05T11:16:57.822Z,96924.75
2022-09-05T11:19:38.202Z,96910.94
2022-09-05T11:22:22.805Z,96910.56
2022-09-05T11:24:56.568Z,96911.50
2022-09-05T11:27:33.041Z,96907.72
2022-09-05T11:30:05.395Z,96906.56
2022-09-05T11:38:55.099Z,96906.88
2022-09-05T11:40:00.001Z,96900.03
2022-09-05T11:40:07.229Z,96904.50
2022-09-05T11:42:31.473Z,96891.25
2022-09-05T11:45:23.326Z,96897.28
2022-09-05T11:48:36.132Z,96885.53
2022-09-05T11:51:37.807Z,96881.97
2022-09-05T11:54:39.926Z,96880.66
2022-09-05T11:57:42.897Z,96876.09
2022-09-05T12:00:31.284Z,96874.81
2022-09-05T12:03:59.654Z,96875.06
2022-09-05T12:06:50.751Z,96866.31
2022-09-05T12:09:33.223Z,96867.72
2022-09-05T12:12:34.110Z,96860.22
2022-09-05T12:15:27.050Z,96859.03
2022-09-05T12:18:19.138Z,96852.03
2022-09-05T12:20:57.412Z,96851.38
2022-09-05T12:23:55.226Z,96855.19
2022-09-05T12:27:39.806Z,96850.00
2022-09-05T12:29:34.931Z,96825.66
2022-09-05T12:33:58.465Z,96837.25
2022-09-05T12:36:10.454Z,96839.53
2022-09-05T12:40:56.097Z,96844.03
2022-09-05T12:41:38.191Z,96837.97
2022-09-05T12:44:37.783Z,96831.06
2022-09-05T12:46:38.173Z,96834.88
2022-09-05T12:49:11.713Z,96821.72
2022-09-05T12:51:47.676Z,96826.50
2022-09-05T12:54:33.477Z,96824.16
2022-09-05T13:02:48.695Z,96815.34
2022-09-05T13:03:04.851Z,96817.69
2022-09-05T13:03:06.072Z,96819.22
2022-09-05T13:05:52.695Z,96809.63
2022-09-05T13:08:22.350Z,96807.34
2022-09-05T13:14:53.868Z,96797.72
2022-09-05T13:14:54.537Z,96803.84
2022-09-05T13:16:41.336Z,96803.63
2022-09-05T13:19:29.340Z,96798.84
2022-09-05T13:21:59.088Z,96803.63
2022-09-05T13:24:32.139Z,96787.81
2022-09-05T13:27:08.752Z,96788.50
2022-09-05T13:30:29.754Z,96787.28
2022-09-05T13:37:58.358Z,96785.31
2022-09-05T13:37:59.371Z,96779.59
2022-09-05T13:38:48.958Z,96778.13
2022-09-05T13:41:28.395Z,96769.13
2022-09-05T13:44:00.232Z,96777.84
2022-09-05T13:46:58.529Z,96772.38
2022-09-05T13:49:32.209Z,96768.66
2022-09-05T13:52:13.655Z,96762.97
2022-09-05T13:54:50.802Z,96764.91
2022-09-05T13:57:31.681Z,96755.19
2022-09-05T14:00:38.239Z,96758.84
2022-09-05T14:03:39.392Z,96755.59
2022-09-05T14:06:46.576Z,96754.84
2022-09-05T14:09:37.854Z,96757.38
2022-09-05T14:12:19.644Z,96754.84
2022-09-05T14:15:09.353Z,96751.50
2022-09-05T14:17:55.387Z,96739.03
2022-09-05T14:20:49.345Z,96738.13
2022-09-05T14:23:19.843Z,96737.97
2022-09-05T14:25:53.353Z,96736.00
2022-09-05T14:28:28.250Z,96725.94
2022-09-05T14:37:35.120Z,96717.16
2022-09-05T14:37:38.624Z,96723.22
2022-09-05T14:37:42.765Z,96718.75
2022-09-05T14:40:30.444Z,96716.38
2022-09-05T14:43:37.964Z,96710.50
2022-09-05T14:46:17.868Z,96708.47
2022-09-05T14:49:01.290Z,96710.84
2022-09-05T14:51:43.290Z,96709.09
2022-09-05T14:59:49.711Z,96694.91
2022-09-05T15:02:54.499Z,96693.16
2022-09-05T15:03:01.897Z,96691.53
2022-09-05T15:05:44.684Z,96680.81
2022-09-05T15:10:06.424Z,96689.88
2022-09-05T15:12:19.619Z,96694.13
2022-09-05T15:14:03.552Z,96691.59
2022-09-05T15:16:32.908Z,96692.13
2022-09-05T15:19:00.719Z,96694.13
2022-09-05T15:21:34.265Z,96683.66
2022-09-05T15:24:13.460Z,96686.38
2022-09-05T15:26:53.118Z,96693.31
2022-09-05T15:29:25.131Z,96686.53
2022-09-05T15:32:09.358Z,96678.81
2022-09-05T15:34:39.090Z,96690.47
2022-09-05T15:37:23.299Z,96682.84
2022-09-05T15:40:01.657Z,96692.19
2022-09-05T15:42:32.842Z,96678.69
2022-09-05T15:45:10.969Z,96674.72
2022-09-05T15:47:44.541Z,96679.94
2022-09-05T15:50:22.161Z,96673.41
2022-09-05T15:52:55.281Z,96680.38
2022-09-05T15:55:25.182Z,96677.13
2022-09-05T15:58:00.964Z,96668.19
2022-09-05T16:00:41.075Z,96666.31
2022-09-05T16:06:08.362Z,96660.69
2022-09-05T16:10:31.653Z,96653.06
2022-09-05T16:10:36.109Z,96661.91
2022-09-05T16:12:13.872Z,96654.53
2022-09-05T16:14:43.582Z,96659.00
2022-09-05T16:23:20.017Z,96656.03
2022-09-05T16:23:30.082Z,96655.22
2022-09-05T16:23:43.933Z,96650.53
2022-09-05T16:26:12.847Z,96642.84
2022-09-05T16:28:47.966Z,96647.41
2022-09-05T16:31:22.227Z,96652.16
2022-09-05T16:33:50.573Z,96636.00
2022-09-05T16:36:22.300Z,96646.91
2022-09-05T16:38:53.393Z,96641.50
2022-09-05T16:41:26.555Z,96637.88
2022-09-05T16:43:58.025Z,96636.69
2022-09-05T16:46:32.574Z,96639.59
2022-09-05T16:49:07.074Z,96634.09
2022-09-05T16:51:44.544Z,96634.34
2022-09-05T16:54:17.506Z,96638.03
2022-09-05T16:56:49.546Z,96640.34
2022-09-05T16:59:22.802Z,96636.72
2022-09-05T17:02:08.368Z,96633.50
2022-09-05T17:05:04.316Z,96632.38
2022-09-05T17:07:42.309Z,96634.75
2022-09-05T17:10:12.402Z,96629.22
2022-09-05T17:12:42.381Z,96626.59
2022-09-05T17:15:14.897Z,96629.44
2022-09-05T17:18:21.677Z,96628.63
2022-09-05T17:20:49.937Z,96628.75
2022-09-05T17:29:28.940Z,96625.78
2022-09-05T17:29:30.720Z,96630.03
2022-09-05T17:29:36.231Z,96627.63
2022-09-05T17:32:01.015Z,96632.16
2022-09-05T17:35:17.390Z,96630.84
2022-09-05T17:38:28.432Z,96628.22
2022-09-05T17:41:20.335Z,96624.75
2022-09-05T17:43:57.860Z,96626.75
2022-09-05T17:46:29.011Z,96632.78
2022-09-05T17:49:19.962Z,96631.97
2022-09-05T17:52:26.913Z,96637.13
2022-09-05T17:54:57.352Z,96629.28
2022-09-05T17:57:44.261Z,96634.91
2022-09-05T18:01:00.224Z,96629.00
2022-09-05T18:04:13.198Z,96631.84
2022-09-05T18:06:59.058Z,96641.56
2022-09-05T18:10:12.908Z,96644.28
2022-09-05T18:13:14.221Z,96635.72
2022-09-05T18:16:12.322Z,96642.41
2022-09-05T18:19:29.566Z,96644.06
2022-09-05T18:21:53.214Z,96637.53
2022-09-05T18:24:35.046Z,96650.63
2022-09-05T18:27:44.026Z,96650.03
2022-09-05T18:30:07.729Z,96650.09
2022-09-05T18:32:40.920Z,96653.19
2022-09-05T18:35:26.710Z,96649.72
2022-09-05T18:38:49.987Z,96655.16
2022-09-05T18:41:19.249Z,96657.38
2022-09-05T18:44:12.514Z,96656.91
2022-09-05T18:46:46.013Z,96659.34
2022-09-05T18:50:22.232Z,96658.06
2022-09-05T18:52:11.439Z,96653.63
2022-09-05T18:54:44.911Z,96652.84
2022-09-05T18:57:29.734Z,96653.97
2022-09-05T19:00:04.591Z,96661.56
2022-09-05T19:02:51.319Z,96656.22
2022-09-05T19:05:40.492Z,96657.22
2022-09-05T19:08:28.843Z,96658.66
2022-09-05T19:11:27.649Z,96659.72
2022-09-05T19:13:57.881Z,96669.41
2022-09-05T19:16:48.027Z,96657.25
2022-09-05T19:19:18.417Z,96660.59
2022-09-05T19:22:14.614Z,96653.78
2022-09-05T19:24:45.369Z,96669.09
2022-09-05T19:28:53.403Z,96671.03
2022-09-05T19:36:58.908Z,96664.19
2022-09-05T19:36:59.162Z,96660.41
2022-09-05T19:37:08.358Z,96668.00
2022-09-05T19:40:29.601Z,96655.25
2022-09-05T19:47:29.003Z,96661.13
2022-09-05T19:47:35.723Z,96658.34
2022-09-05T19:47:37.379Z,96652.31
2022-09-05T19:50:11.461Z,96664.31
2022-09-05T19:52:40.661Z,96666.97
2022-09-05T19:55:21.807Z,96667.03
2022-09-05T19:58:14.995Z,96656.66
2022-09-05T20:00:55.579Z,96665.72
2022-09-05T20:03:34.576Z,96661.13
2022-09-05T20:06:28.911Z,96660.63
2022-09-05T20:09:09.679Z,96664.28
2022-09-05T20:11:45.562Z,96670.03
2022-09-05T20:14:19.724Z,96671.88
2022-09-05T20:16:49.746Z,96678.06
2022-09-05T20:19:32.180Z,96665.66
2022-09-05T20:22:47.899Z,96673.16
2022-09-05T20:24:56.667Z,96672.63
2022-09-05T20:27:28.203Z,96678.63
2022-09-05T20:29:59.019Z,96685.22
2022-09-05T20:32:40.055Z,96691.47
2022-09-05T20:39:07.054Z,96676.06
2022-09-05T20:43:16.872Z,96676.66
2022-09-05T20:43:18.387Z,96675.25
2022-09-05T20:43:54.561Z,96686.13
2022-09-05T20:49:00.869Z,96693.47
2022-09-05T20:54:14.767Z,96684.19
2022-09-05T20:54:15.841Z,96682.38
2022-09-05T20:55:39.403Z,96680.63
2022-09-05T20:58:10.323Z,96678.47
2022-09-05T21:00:39.685Z,96673.81
2022-09-05T21:03:09.223Z,96674.06
2022-09-05T21:05:39.691Z,96682.78
2022-09-05T21:08:25.844Z,96679.28
2022-09-05T21:10:57.330Z,96679.28
2022-09-05T21:13:27.899Z,96684.16
2022-09-05T21:15:56.966Z,96679.78
2022-09-05T21:18:33.763Z,96668.03
2022-09-05T21:21:10.304Z,96669.50
2022-09-05T21:24:16.473Z,96679.78
2022-09-05T21:26:48.962Z,96673.06
2022-09-05T21:29:24.477Z,96677.13
2022-09-05T21:32:01.210Z,96679.69
2022-09-05T21:34:34.369Z,96681.03
2022-09-05T21:37:07.092Z,96683.50
2022-09-05T21:39:40.135Z,96677.78
2022-09-05T21:47:34.257Z,96683.56
2022-09-05T21:47:47.784Z,96689.50
2022-09-05T21:47:53.152Z,96687.84
2022-09-05T21:50:30.874Z,96684.06
2022-09-05T21:54:10.207Z,96691.41
2022-09-05T21:59:20.377Z,96680.59
2022-09-05T21:59:20.626Z,96688.16
2022-09-05T22:01:51.162Z,96679.50
2022-09-05T22:04:17.550Z,96684.63
2022-09-05T22:06:48.854Z,96678.66
2022-09-05T22:09:17.281Z,96685.41
2022-09-05T22:11:50.550Z,96675.97
2022-09-05T22:14:20.964Z,96682.97
2022-09-05T22:16:50.448Z,96672.09
2022-09-05T22:19:26.152Z,96684.66
2022-09-05T22:22:06.665Z,96672.72
2022-09-05T22:24:36.544Z,96671.91
2022-09-05T22:27:12.209Z,96665.72
2022-09-05T22:29:43.051Z,96668.19
2022-09-05T22:32:15.598Z,96663.06
2022-09-05T22:34:43.549Z,96665.50
2022-09-05T22:37:13.975Z,96667.38
2022-09-05T22:39:42.360Z,96666.31
2022-09-05T22:42:11.120Z,96667.72
2022-09-05T22:44:39.870Z,96666.34
2022-09-05T22:47:10.150Z,96670.94
2022-09-05T22:49:37.982Z,96671.50
2022-09-05T22:52:08.040Z,96663.63
2022-09-05T22:54:36.804Z,96661.19
2022-09-05T22:57:05.535Z,96666.34
2022-09-05T22:59:33.330Z,96662.03
2022-09-05T23:02:01.213Z,96659.31
2022-09-05T23:04:30.394Z,96661.19
2022-09-05T23:07:02.346Z,96664.19
2022-09-05T23:09:30.596Z,96664.47
2022-09-05T23:11:58.306Z,96672.03
2022-09-05T23:14:26.019Z,96667.72
2022-09-05T23:16:53.791Z,96664.22
2022-09-05T23:19:21.525Z,96662.06
2022-09-05T23:21:50.647Z,96659.34
2022-09-05T23:24:18.480Z,96665.28
2022-09-05T23:26:46.364Z,96664.50
2022-09-05T23:29:14.144Z,96666.38
2022-09-05T23:31:42.039Z,96666.63
2022-09-05T23:34:09.959Z,96647.44
2022-09-05T23:36:37.732Z,96656.09
2022-09-05T23:39:06.861Z,96652.84
2022-09-05T23:41:34.708Z,96657.16
2022-09-05T23:44:02.902Z,96654.47
2022-09-05T23:46:32.153Z,96660.97
2022-09-05T23:49:00.048Z,96664.75
2022-09-05T23:51:28.008Z,96665.84
2022-09-05T23:53:55.755Z,96665.84
2022-09-05T23:56:24.855Z,96658.00
2022-09-05T23:58:52.603Z,96655.03
